Elm Hall, Michigan
Current Conditions -  °F | °C
As of 5:15 AM on Saturday 22 Nov 2014 (Local Time) from KAMN Reporting Station
Overcast Overcast  
Wind Chill: 22°   Ceiling: 1600
Heat Index: 29°   Visibility: 10mi
Dew Point: 19°   Wind: 8mph
Humidity: 65%   Direction: 190°S
Pressure: 30.08"   Gusts: NA
Location:  43.36°N, 84.84°W
Report Text: KAMN 221015Z AUTO 19007KT 10SM OVC016 M01/M07 A3008 RMK AO2 T10151074
Loading
Personal Weather Stations






























Interactive Weather Map New forecast layout! Learn more

10-Day Weather Forecast

Advertisements
Track Severe Weather on mobile